Kings Worthy, United Kingdom
Current Conditions -  °F | °C
As of 2:50 PM on Monday 24 Nov 2014 (Local Time) from EGVP Reporting Station
Few Clouds Few Clouds  
Wind Chill: 46°   Ceiling: Unl
Heat Index: 46°   Visibility: 6mi
Dew Point: 36°   Wind: 3mph
Humidity: 66%   Direction: 90°E
Pressure: 30.3"   Gusts: NA
Location:  51.09°N, 1.3°W
Report Text: EGVP 241450Z 09003KT 9999 FEW010 08/02 Q1026 BLU NOSIG
Loading
Personal Weather Stations






























Interactive Weather Map New forecast layout! Learn more

10-Day Weather Forecast

Advertisements
Track Severe Weather on mobile